sensor_id;sensor_type;location;lat;lon;timestamp;P1;durP1;ratioP1;P2;durP2;ratioP2
8001;SDS011;4046;48.774;8.732;2023-08-20T00:00:02;5.10;;;4.80;;
8001;SDS011;4046;48.774;8.732;2023-08-20T00:02:30;5.60;;;5.20;;
8001;SDS011;4046;48.774;8.732;2023-08-20T00:04:58;5.50;;;5.10;;
8001;SDS011;4046;48.774;8.732;2023-08-20T00:07:25;6.00;;;5.50;;
8001;SDS011;4046;48.774;8.732;2023-08-20T00:09:50;4.80;;;4.60;;
8001;SDS011;4046;48.774;8.732;2023-08-20T00:12:16;5.57;;;5.17;;
8001;SDS011;4046;48.774;8.732;2023-08-20T00:14:52;5.67;;;5.33;;
8001;SDS011;4046;48.774;8.732;2023-08-20T00:17:23;5.60;;;5.20;;
8001;SDS011;4046;48.774;8.732;2023-08-20T00:19:53;5.23;;;4.93;;
8001;SDS011;4046;48.774;8.732;2023-08-20T00:22:21;5.03;;;4.73;;
8001;SDS011;4046;48.774;8.732;2023-08-20T00:24:48;5.37;;;4.97;;
8001;SDS011;4046;48.774;8.732;2023-08-20T00:27:14;5.90;;;5.60;;
8001;SDS011;4046;48.774;8.732;2023-08-20T00:29:40;5.50;;;5.20;;
8001;SDS011;4046;48.774;8.732;2023-08-20T00:32:06;5.57;;;5.17;;
8001;SDS011;4046;48.774;8.732;2023-08-20T00:34:31;5.97;;;5.40;;
8001;SDS011;4046;48.774;8.732;2023-08-20T00:36:57;5.10;;;4.80;;
8001;SDS011;4046;48.774;8.732;2023-08-20T00:39:23;5.40;;;5.10;;
8001;SDS011;4046;48.774;8.732;2023-08-20T00:41:48;5.33;;;4.97;;
8001;SDS011;4046;48.774;8.732;2023-08-20T00:44:14;5.80;;;5.40;;
8001;SDS011;4046;48.774;8.732;2023-08-20T00:46:40;4.90;;;4.60;;
8001;SDS011;4046;48.774;8.732;2023-08-20T00:49:06;5.77;;;5.40;;
8001;SDS011;4046;48.774;8.732;2023-08-20T00:51:32;5.47;;;5.17;;
8001;SDS011;4046;48.774;8.732;2023-08-20T00:53:59;5.70;;;5.30;;
8001;SDS011;4046;48.774;8.732;2023-08-20T00:56:26;6.00;;;5.47;;
8001;SDS011;4046;48.774;8.732;2023-08-20T00:58:52;5.13;;;4.83;;
8001;SDS011;4046;48.774;8.732;2023-08-20T01:01:19;5.60;;;5.20;;
8001;SDS011;4046;48.774;8.732;2023-08-20T01:03:45;5.20;;;4.90;;
8001;SDS011;4046;48.774;8.732;2023-08-20T01:09:05;5.07;;;4.77;;
8001;SDS011;4046;48.774;8.732;2023-08-20T01:11:47;5.43;;;5.03;;
8001;SDS011;4046;48.774;8.732;2023-08-20T01:14:20;5.67;;;5.33;;
8001;SDS011;4046;48.774;8.732;2023-08-20T01:16:46;5.33;;;5.03;;
8001;SDS011;4046;48.774;8.732;2023-08-20T01:19:16;4.97;;;4.67;;
8001;SDS011;4046;48.774;8.732;2023-08-20T01:21:47;6.00;;;5.60;;
8001;SDS011;4046;48.774;8.732;2023-08-20T01:24:38;5.97;;;5.57;;
8001;SDS011;4046;48.774;8.732;2023-08-20T01:29:42;6.03;;;5.60;;
8001;SDS011;4046;48.774;8.732;2023-08-20T01:32:08;5.40;;;5.10;;
8001;SDS011;4046;48.774;8.732;2023-08-20T01:34:36;5.50;;;5.10;;
8001;SDS011;4046;48.774;8.732;2023-08-20T01:37:02;5.50;;;5.20;;
8001;SDS011;4046;48.774;8.732;2023-08-20T01:39:27;4.77;;;4.47;;
8001;SDS011;4046;48.774;8.732;2023-08-20T01:41:53;5.40;;;5.10;;
8001;SDS011;4046;48.774;8.732;2023-08-20T01:44:19;6.20;;;5.80;;
8001;SDS011;4046;48.774;8.732;2023-08-20T01:46:44;6.10;;;5.70;;
8001;SDS011;4046;48.774;8.732;2023-08-20T01:49:10;5.77;;;5.30;;
8001;SDS011;4046;48.774;8.732;2023-08-20T01:51:35;5.40;;;5.10;;
8001;SDS011;4046;48.774;8.732;2023-08-20T01:54:02;6.07;;;5.67;;
8001;SDS011;4046;48.774;8.732;2023-08-20T01:56:27;6.10;;;5.80;;
8001;SDS011;4046;48.774;8.732;2023-08-20T01:58:53;6.13;;;5.73;;
8001;SDS011;4046;48.774;8.732;2023-08-20T02:01:19;5.63;;;5.33;;
8001;SDS011;4046;48.774;8.732;2023-08-20T02:03:44;6.20;;;5.80;;
8001;SDS011;4046;48.774;8.732;2023-08-20T02:06:10;6.00;;;5.60;;
8001;SDS011;4046;48.774;8.732;2023-08-20T02:08:36;6.17;;;5.67;;
8001;SDS011;4046;48.774;8.732;2023-08-20T02:11:02;5.77;;;5.47;;
8001;SDS011;4046;48.774;8.732;2023-08-20T02:13:28;5.40;;;5.10;;
8001;SDS011;4046;48.774;8.732;2023-08-20T02:15:59;5.40;;;5.10;;
8001;SDS011;4046;48.774;8.732;2023-08-20T02:18:29;5.53;;;5.23;;
8001;SDS011;4046;48.774;8.732;2023-08-20T02:20:58;5.80;;;5.50;;
8001;SDS011;4046;48.774;8.732;2023-08-20T02:23:23;6.37;;;5.97;;
8001;SDS011;4046;48.774;8.732;2023-08-20T02:25:49;5.87;;;5.47;;
8001;SDS011;4046;48.774;8.732;2023-08-20T02:28:15;6.07;;;5.67;;
8001;SDS011;4046;48.774;8.732;2023-08-20T02:30:41;5.50;;;5.20;;
8001;SDS011;4046;48.774;8.732;2023-08-20T02:33:08;5.70;;;5.30;;
8001;SDS011;4046;48.774;8.732;2023-08-20T02:35:35;5.90;;;5.60;;
8001;SDS011;4046;48.774;8.732;2023-08-20T02:38:01;5.47;;;5.07;;
8001;SDS011;4046;48.774;8.732;2023-08-20T02:40:27;6.30;;;5.90;;
8001;SDS011;4046;48.774;8.732;2023-08-20T02:42:53;6.00;;;5.70;;
8001;SDS011;4046;48.774;8.732;2023-08-20T02:45:19;6.00;;;5.60;;
8001;SDS011;4046;48.774;8.732;2023-08-20T02:47:44;5.70;;;5.40;;
8001;SDS011;4046;48.774;8.732;2023-08-20T02:50:10;5.77;;;5.37;;
8001;SDS011;4046;48.774;8.732;2023-08-20T02:52:36;5.73;;;5.37;;
8001;SDS011;4046;48.774;8.732;2023-08-20T02:55:02;5.73;;;5.43;;
8001;SDS011;4046;48.774;8.732;2023-08-20T02:57:30;5.67;;;5.27;;
8001;SDS011;4046;48.774;8.732;2023-08-20T02:59:56;6.10;;;5.70;;
8001;SDS011;4046;48.774;8.732;2023-08-20T03:02:22;5.80;;;5.40;;
8001;SDS011;4046;48.774;8.732;2023-08-20T03:04:48;5.80;;;5.50;;
8001;SDS011;4046;48.774;8.732;2023-08-20T03:07:13;6.10;;;5.70;;
8001;SDS011;4046;48.774;8.732;2023-08-20T03:09:39;5.37;;;5.07;;
8001;SDS011;4046;48.774;8.732;2023-08-20T03:12:05;5.73;;;5.33;;
8001;SDS011;4046;48.774;8.732;2023-08-20T03:14:31;6.00;;;5.70;;
8001;SDS011;4046;48.774;8.732;2023-08-20T03:16:56;5.87;;;5.57;;
8001;SDS011;4046;48.774;8.732;2023-08-20T03:19:22;6.00;;;5.70;;
8001;SDS011;4046;48.774;8.732;2023-08-20T03:21:48;5.43;;;5.13;;
8001;SDS011;4046;48.774;8.732;2023-08-20T03:24:13;6.10;;;5.73;;
8001;SDS011;4046;48.774;8.732;2023-08-20T03:26:39;6.73;;;6.33;;
8001;SDS011;4046;48.774;8.732;2023-08-20T03:29:05;5.93;;;5.57;;
8001;SDS011;4046;48.774;8.732;2023-08-20T03:31:31;5.80;;;5.30;;
8001;SDS011;4046;48.774;8.732;2023-08-20T03:33:56;5.90;;;5.60;;
8001;SDS011;4046;48.774;8.732;2023-08-20T03:36:22;6.30;;;5.70;;
8001;SDS011;4046;48.774;8.732;2023-08-20T03:38:47;6.10;;;5.70;;
8001;SDS011;4046;48.774;8.732;2023-08-20T03:41:14;6.00;;;5.60;;
8001;SDS011;4046;48.774;8.732;2023-08-20T03:43:39;7.03;;;5.27;;
8001;SDS011;4046;48.774;8.732;2023-08-20T03:46:05;5.87;;;5.57;;
8001;SDS011;4046;48.774;8.732;2023-08-20T03:48:31;5.53;;;5.10;;
8001;SDS011;4046;48.774;8.732;2023-08-20T03:50:56;6.03;;;5.63;;
8001;SDS011;4046;48.774;8.732;2023-08-20T03:53:22;6.20;;;5.80;;
8001;SDS011;4046;48.774;8.732;2023-08-20T03:55:48;6.30;;;5.90;;
8001;SDS011;4046;48.774;8.732;2023-08-20T03:58:14;6.37;;;5.97;;
8001;SDS011;4046;48.774;8.732;2023-08-20T04:00:41;5.90;;;5.50;;
8001;SDS011;4046;48.774;8.732;2023-08-20T04:03:06;5.57;;;5.23;;
8001;SDS011;4046;48.774;8.732;2023-08-20T04:05:36;5.57;;;5.27;;
8001;SDS011;4046;48.774;8.732;2023-08-20T04:08:03;6.23;;;5.83;;
8001;SDS011;4046;48.774;8.732;2023-08-20T04:10:29;6.50;;;6.10;;
8001;SDS011;4046;48.774;8.732;2023-08-20T04:12:55;6.40;;;6.03;;
8001;SDS011;4046;48.774;8.732;2023-08-20T04:15:21;5.87;;;5.57;;
8001;SDS011;4046;48.774;8.732;2023-08-20T04:17:47;5.80;;;5.47;;
8001;SDS011;4046;48.774;8.732;2023-08-20T04:20:14;5.63;;;5.33;;
8001;SDS011;4046;48.774;8.732;2023-08-20T04:22:40;5.93;;;5.63;;
8001;SDS011;4046;48.774;8.732;2023-08-20T04:25:06;6.20;;;5.80;;
8001;SDS011;4046;48.774;8.732;2023-08-20T04:27:32;7.30;;;6.63;;
8001;SDS011;4046;48.774;8.732;2023-08-20T04:29:58;6.17;;;5.67;;
8001;SDS011;4046;48.774;8.732;2023-08-20T04:32:24;6.13;;;5.83;;
8001;SDS011;4046;48.774;8.732;2023-08-20T04:34:50;5.90;;;5.50;;
8001;SDS011;4046;48.774;8.732;2023-08-20T04:37:18;6.33;;;5.93;;
8001;SDS011;4046;48.774;8.732;2023-08-20T04:39:44;6.10;;;5.70;;
8001;SDS011;4046;48.774;8.732;2023-08-20T04:42:10;5.67;;;5.37;;
8001;SDS011;4046;48.774;8.732;2023-08-20T04:44:36;5.87;;;5.57;;
8001;SDS011;4046;48.774;8.732;2023-08-20T04:47:01;5.80;;;5.50;;
8001;SDS011;4046;48.774;8.732;2023-08-20T04:49:27;5.83;;;5.53;;
8001;SDS011;4046;48.774;8.732;2023-08-20T04:51:55;5.47;;;5.17;;
8001;SDS011;4046;48.774;8.732;2023-08-20T04:54:21;6.30;;;5.90;;
8001;SDS011;4046;48.774;8.732;2023-08-20T04:56:46;6.20;;;5.80;;
8001;SDS011;4046;48.774;8.732;2023-08-20T04:59:12;6.47;;;6.07;;
8001;SDS011;4046;48.774;8.732;2023-08-20T05:01:38;6.13;;;5.73;;
8001;SDS011;4046;48.774;8.732;2023-08-20T05:04:04;6.30;;;5.90;;
8001;SDS011;4046;48.774;8.732;2023-08-20T05:06:31;6.27;;;5.80;;
8001;SDS011;4046;48.774;8.732;2023-08-20T05:08:56;5.87;;;5.47;;
8001;SDS011;4046;48.774;8.732;2023-08-20T05:11:22;5.40;;;5.10;;
8001;SDS011;4046;48.774;8.732;2023-08-20T05:13:49;5.77;;;5.37;;
8001;SDS011;4046;48.774;8.732;2023-08-20T05:16:15;5.63;;;5.33;;
8001;SDS011;4046;48.774;8.732;2023-08-20T05:18:41;6.43;;;6.03;;
8001;SDS011;4046;48.774;8.732;2023-08-20T05:21:07;6.63;;;6.20;;
8001;SDS011;4046;48.774;8.732;2023-08-20T05:23:33;5.83;;;5.33;;
8001;SDS011;4046;48.774;8.732;2023-08-20T05:25:59;5.90;;;5.50;;
8001;SDS011;4046;48.774;8.732;2023-08-20T05:28:24;6.83;;;6.17;;
8001;SDS011;4046;48.774;8.732;2023-08-20T05:30:56;5.60;;;5.30;;
8001;SDS011;4046;48.774;8.732;2023-08-20T05:33:22;6.60;;;5.90;;
8001;SDS011;4046;48.774;8.732;2023-08-20T05:35:49;6.13;;;5.73;;
8001;SDS011;4046;48.774;8.732;2023-08-20T05:38:15;6.13;;;5.73;;
8001;SDS011;4046;48.774;8.732;2023-08-20T05:40:41;6.50;;;6.00;;
8001;SDS011;4046;48.774;8.732;2023-08-20T05:43:07;6.60;;;6.20;;
8001;SDS011;4046;48.774;8.732;2023-08-20T05:45:33;6.60;;;6.10;;
8001;SDS011;4046;48.774;8.732;2023-08-20T05:47:59;6.20;;;5.80;;
8001;SDS011;4046;48.774;8.732;2023-08-20T05:50:25;5.50;;;5.20;;
8001;SDS011;4046;48.774;8.732;2023-08-20T05:52:51;6.17;;;5.77;;
8001;SDS011;4046;48.774;8.732;2023-08-20T05:55:17;5.80;;;5.50;;
8001;SDS011;4046;48.774;8.732;2023-08-20T05:57:43;5.43;;;5.13;;
8001;SDS011;4046;48.774;8.732;2023-08-20T06:00:10;6.57;;;6.17;;
8001;SDS011;4046;48.774;8.732;2023-08-20T06:02:37;6.37;;;5.97;;
8001;SDS011;4046;48.774;8.732;2023-08-20T06:05:03;6.23;;;5.83;;
8001;SDS011;4046;48.774;8.732;2023-08-20T06:07:30;6.10;;;5.70;;
8001;SDS011;4046;48.774;8.732;2023-08-20T06:09:56;6.20;;;5.80;;
8001;SDS011;4046;48.774;8.732;2023-08-20T06:12:22;5.80;;;5.50;;
8001;SDS011;4046;48.774;8.732;2023-08-20T06:14:48;5.53;;;5.23;;
8001;SDS011;4046;48.774;8.732;2023-08-20T06:17:14;6.23;;;5.90;;
8001;SDS011;4046;48.774;8.732;2023-08-20T06:19:40;6.70;;;6.03;;
8001;SDS011;4046;48.774;8.732;2023-08-20T06:22:05;5.80;;;5.40;;
8001;SDS011;4046;48.774;8.732;2023-08-20T06:24:31;6.10;;;5.70;;
8001;SDS011;4046;48.774;8.732;2023-08-20T06:26:57;6.60;;;6.20;;
8001;SDS011;4046;48.774;8.732;2023-08-20T06:29:22;6.50;;;6.10;;
8001;SDS011;4046;48.774;8.732;2023-08-20T06:31:48;6.07;;;5.67;;
8001;SDS011;4046;48.774;8.732;2023-08-20T06:34:15;5.90;;;5.60;;
8001;SDS011;4046;48.774;8.732;2023-08-20T06:36:41;6.27;;;5.87;;
8001;SDS011;4046;48.774;8.732;2023-08-20T06:39:07;5.87;;;5.57;;
8001;SDS011;4046;48.774;8.732;2023-08-20T06:41:33;6.03;;;5.57;;
8001;SDS011;4046;48.774;8.732;2023-08-20T06:43:59;5.87;;;5.57;;
8001;SDS011;4046;48.774;8.732;2023-08-20T06:46:25;6.03;;;5.73;;
8001;SDS011;4046;48.774;8.732;2023-08-20T06:48:51;5.90;;;5.60;;
8001;SDS011;4046;48.774;8.732;2023-08-20T06:51:19;6.10;;;5.80;;
8001;SDS011;4046;48.774;8.732;2023-08-20T06:53:46;6.03;;;5.63;;
8001;SDS011;4046;48.774;8.732;2023-08-20T06:56:12;5.40;;;5.10;;
8001;SDS011;4046;48.774;8.732;2023-08-20T06:58:38;6.63;;;6.13;;
8001;SDS011;4046;48.774;8.732;2023-08-20T07:01:05;6.27;;;5.90;;
8001;SDS011;4046;48.774;8.732;2023-08-20T07:06:02;5.40;;;5.10;;
8001;SDS011;4046;48.774;8.732;2023-08-20T07:08:28;5.80;;;5.50;;
8001;SDS011;4046;48.774;8.732;2023-08-20T07:10:54;6.17;;;5.80;;
8001;SDS011;4046;48.774;8.732;2023-08-20T07:13:20;6.03;;;5.73;;
8001;SDS011;4046;48.774;8.732;2023-08-20T07:15:47;6.10;;;5.70;;
8001;SDS011;4046;48.774;8.732;2023-08-20T07:18:12;6.27;;;5.87;;
8001;SDS011;4046;48.774;8.732;2023-08-20T07:20:44;6.20;;;5.80;;
8001;SDS011;4046;48.774;8.732;2023-08-20T07:23:10;6.63;;;6.23;;
8001;SDS011;4046;48.774;8.732;2023-08-20T07:25:37;5.30;;;5.00;;
8001;SDS011;4046;48.774;8.732;2023-08-20T07:28:07;6.10;;;5.60;;
8001;SDS011;4046;48.774;8.732;2023-08-20T07:30:34;6.43;;;6.03;;
8001;SDS011;4046;48.774;8.732;2023-08-20T07:33:00;6.20;;;5.80;;
8001;SDS011;4046;48.774;8.732;2023-08-20T07:35:27;6.50;;;6.10;;
8001;SDS011;4046;48.774;8.732;2023-08-20T07:37:52;6.33;;;5.80;;
8001;SDS011;4046;48.774;8.732;2023-08-20T07:40:18;6.00;;;5.60;;
8001;SDS011;4046;48.774;8.732;2023-08-20T07:42:45;6.07;;;5.77;;
8001;SDS011;4046;48.774;8.732;2023-08-20T07:45:10;6.50;;;6.00;;
8001;SDS011;4046;48.774;8.732;2023-08-20T07:47:36;5.67;;;5.37;;
8001;SDS011;4046;48.774;8.732;2023-08-20T07:50:03;6.17;;;5.87;;
8001;SDS011;4046;48.774;8.732;2023-08-20T07:52:30;6.73;;;6.13;;
8001;SDS011;4046;48.774;8.732;2023-08-20T07:54:56;5.60;;;5.30;;
8001;SDS011;4046;48.774;8.732;2023-08-20T07:57:21;6.10;;;5.80;;
8001;SDS011;4046;48.774;8.732;2023-08-20T07:59:49;6.30;;;5.90;;
8001;SDS011;4046;48.774;8.732;2023-08-20T08:02:15;6.17;;;5.87;;
8001;SDS011;4046;48.774;8.732;2023-08-20T08:04:41;5.37;;;5.10;;
8001;SDS011;4046;48.774;8.732;2023-08-20T08:07:07;5.60;;;5.30;;
8001;SDS011;4046;48.774;8.732;2023-08-20T08:09:34;5.80;;;5.50;;
8001;SDS011;4046;48.774;8.732;2023-08-20T08:11:59;5.90;;;5.53;;
8001;SDS011;4046;48.774;8.732;2023-08-20T08:14:26;6.30;;;5.90;;
8001;SDS011;4046;48.774;8.732;2023-08-20T08:16:52;6.20;;;5.80;;
8001;SDS011;4046;48.774;8.732;2023-08-20T08:19:18;5.70;;;5.40;;
8001;SDS011;4046;48.774;8.732;2023-08-20T08:21:45;5.90;;;5.60;;
8001;SDS011;4046;48.774;8.732;2023-08-20T08:24:12;4.90;;;4.60;;
8001;SDS011;4046;48.774;8.732;2023-08-20T08:26:39;6.00;;;5.70;;
8001;SDS011;4046;48.774;8.732;2023-08-20T08:29:05;5.50;;;5.20;;
8001;SDS011;4046;48.774;8.732;2023-08-20T08:31:32;13.60;;;6.30;;
8001;SDS011;4046;48.774;8.732;2023-08-20T08:33:58;6.70;;;6.30;;
8001;SDS011;4046;48.774;8.732;2023-08-20T08:36:24;7.10;;;6.50;;
8001;SDS011;4046;48.774;8.732;2023-08-20T08:38:50;6.77;;;6.20;;
8001;SDS011;4046;48.774;8.732;2023-08-20T08:41:17;7.07;;;6.47;;
8001;SDS011;4046;48.774;8.732;2023-08-20T08:43:44;13.63;;;7.17;;
8001;SDS011;4046;48.774;8.732;2023-08-20T08:46:14;8.23;;;7.63;;
8001;SDS011;4046;48.774;8.732;2023-08-20T08:48:42;7.90;;;7.10;;
8001;SDS011;4046;48.774;8.732;2023-08-20T08:51:09;7.77;;;7.17;;
8001;SDS011;4046;48.774;8.732;2023-08-20T08:53:37;7.50;;;6.90;;
8001;SDS011;4046;48.774;8.732;2023-08-20T08:56:03;7.90;;;7.20;;
8001;SDS011;4046;48.774;8.732;2023-08-20T08:58:31;7.23;;;6.70;;
8001;SDS011;4046;48.774;8.732;2023-08-20T09:00:58;6.97;;;6.47;;
8001;SDS011;4046;48.774;8.732;2023-08-20T09:03:23;7.47;;;6.87;;
8001;SDS011;4046;48.774;8.732;2023-08-20T09:05:50;6.80;;;6.40;;
8001;SDS011;4046;48.774;8.732;2023-08-20T09:08:21;7.50;;;6.90;;
8001;SDS011;4046;48.774;8.732;2023-08-20T09:10:51;7.30;;;6.73;;
8001;SDS011;4046;48.774;8.732;2023-08-20T09:13:19;7.77;;;7.07;;
8001;SDS011;4046;48.774;8.732;2023-08-20T09:15:50;6.47;;;6.07;;
8001;SDS011;4046;48.774;8.732;2023-08-20T09:18:17;7.57;;;7.07;;
8001;SDS011;4046;48.774;8.732;2023-08-20T09:20:42;7.17;;;6.67;;
8001;SDS011;4046;48.774;8.732;2023-08-20T09:23:12;6.40;;;6.00;;
8001;SDS011;4046;48.774;8.732;2023-08-20T09:25:38;6.87;;;6.37;;
8001;SDS011;4046;48.774;8.732;2023-08-20T09:28:04;6.20;;;5.70;;
8001;SDS011;4046;48.774;8.732;2023-08-20T09:30:30;6.57;;;6.17;;
8001;SDS011;4046;48.774;8.732;2023-08-20T09:35:52;6.30;;;5.90;;
8001;SDS011;4046;48.774;8.732;2023-08-20T09:38:21;6.23;;;5.83;;
8001;SDS011;4046;48.774;8.732;2023-08-20T09:40:49;6.60;;;6.20;;
8001;SDS011;4046;48.774;8.732;2023-08-20T09:43:17;6.10;;;5.50;;
8001;SDS011;4046;48.774;8.732;2023-08-20T09:45:45;6.83;;;6.33;;
8001;SDS011;4046;48.774;8.732;2023-08-20T09:48:12;6.50;;;6.10;;
8001;SDS011;4046;48.774;8.732;2023-08-20T09:50:42;6.50;;;6.20;;
8001;SDS011;4046;48.774;8.732;2023-08-20T09:53:59;7.10;;;6.70;;
8001;SDS011;4046;48.774;8.732;2023-08-20T09:56:17;6.47;;;6.07;;
8001;SDS011;4046;48.774;8.732;2023-08-20T09:58:49;6.50;;;6.00;;
8001;SDS011;4046;48.774;8.732;2023-08-20T10:01:16;6.60;;;6.20;;
8001;SDS011;4046;48.774;8.732;2023-08-20T10:03:42;6.23;;;5.93;;
8001;SDS011;4046;48.774;8.732;2023-08-20T10:06:08;6.67;;;6.27;;
8001;SDS011;4046;48.774;8.732;2023-08-20T10:08:36;6.73;;;6.33;;
8001;SDS011;4046;48.774;8.732;2023-08-20T10:11:03;6.70;;;6.30;;
8001;SDS011;4046;48.774;8.732;2023-08-20T10:13:29;6.30;;;5.97;;
8001;SDS011;4046;48.774;8.732;2023-08-20T10:15:55;6.63;;;6.23;;
8001;SDS011;4046;48.774;8.732;2023-08-20T10:18:21;6.37;;;5.97;;
8001;SDS011;4046;48.774;8.732;2023-08-20T10:20:50;6.27;;;5.77;;
8001;SDS011;4046;48.774;8.732;2023-08-20T10:23:19;6.70;;;6.30;;
8001;SDS011;4046;48.774;8.732;2023-08-20T10:25:48;6.80;;;6.40;;
8001;SDS011;4046;48.774;8.732;2023-08-20T10:28:24;6.90;;;6.40;;
8001;SDS011;4046;48.774;8.732;2023-08-20T10:31:08;6.40;;;6.00;;
8001;SDS011;4046;48.774;8.732;2023-08-20T10:33:35;5.87;;;5.47;;
8001;SDS011;4046;48.774;8.732;2023-08-20T10:36:09;6.80;;;6.40;;
8001;SDS011;4046;48.774;8.732;2023-08-20T10:38:38;6.57;;;6.17;;
8001;SDS011;4046;48.774;8.732;2023-08-20T10:41:07;6.80;;;6.50;;
8001;SDS011;4046;48.774;8.732;2023-08-20T10:48:42;6.37;;;5.90;;
8001;SDS011;4046;48.774;8.732;2023-08-20T10:51:17;6.43;;;6.03;;
8001;SDS011;4046;48.774;8.732;2023-08-20T10:53:48;6.53;;;6.07;;
8001;SDS011;4046;48.774;8.732;2023-08-20T10:56:42;6.30;;;6.00;;
8001;SDS011;4046;48.774;8.732;2023-08-20T10:59:16;5.60;;;5.20;;
8001;SDS011;4046;48.774;8.732;2023-08-20T11:01:47;6.57;;;6.17;;
8001;SDS011;4046;48.774;8.732;2023-08-20T11:04:15;6.07;;;5.77;;
8001;SDS011;4046;48.774;8.732;2023-08-20T11:06:41;6.50;;;6.10;;
8001;SDS011;4046;48.774;8.732;2023-08-20T11:09:07;6.23;;;5.77;;
8001;SDS011;4046;48.774;8.732;2023-08-20T11:11:33;6.63;;;6.13;;
8001;SDS011;4046;48.774;8.732;2023-08-20T11:14:04;6.37;;;5.97;;
8001;SDS011;4046;48.774;8.732;2023-08-20T11:16:32;6.47;;;6.00;;
8001;SDS011;4046;48.774;8.732;2023-08-20T11:19:00;6.30;;;5.90;;
8001;SDS011;4046;48.774;8.732;2023-08-20T11:21:25;6.10;;;5.70;;
8001;SDS011;4046;48.774;8.732;2023-08-20T11:23:53;6.50;;;6.10;;
8001;SDS011;4046;48.774;8.732;2023-08-20T11:26:20;6.37;;;5.97;;
8001;SDS011;4046;48.774;8.732;2023-08-20T11:28:46;6.10;;;5.80;;
8001;SDS011;4046;48.774;8.732;2023-08-20T11:31:12;6.30;;;6.00;;
8001;SDS011;4046;48.774;8.732;2023-08-20T11:33:38;6.87;;;6.43;;
8001;SDS011;4046;48.774;8.732;2023-08-20T11:36:05;6.93;;;6.43;;
8001;SDS011;4046;48.774;8.732;2023-08-20T11:38:31;6.77;;;6.17;;
8001;SDS011;4046;48.774;8.732;2023-08-20T11:40:57;6.27;;;5.60;;
8001;SDS011;4046;48.774;8.732;2023-08-20T11:43:26;6.63;;;6.23;;
8001;SDS011;4046;48.774;8.732;2023-08-20T11:45:53;6.33;;;5.93;;
8001;SDS011;4046;48.774;8.732;2023-08-20T11:48:19;7.10;;;6.60;;
8001;SDS011;4046;48.774;8.732;2023-08-20T11:50:46;7.20;;;6.70;;
8001;SDS011;4046;48.774;8.732;2023-08-20T11:53:12;6.67;;;6.27;;
8001;SDS011;4046;48.774;8.732;2023-08-20T11:55:39;6.97;;;6.57;;
8001;SDS011;4046;48.774;8.732;2023-08-20T11:58:12;7.53;;;7.03;;
8001;SDS011;4046;48.774;8.732;2023-08-20T12:00:38;6.47;;;6.07;;
8001;SDS011;4046;48.774;8.732;2023-08-20T12:03:04;6.70;;;6.30;;
8001;SDS011;4046;48.774;8.732;2023-08-20T12:05:30;6.90;;;6.40;;
8001;SDS011;4046;48.774;8.732;2023-08-20T12:07:57;6.90;;;6.50;;
8001;SDS011;4046;48.774;8.732;2023-08-20T12:10:24;6.50;;;6.10;;
8001;SDS011;4046;48.774;8.732;2023-08-20T12:12:54;6.70;;;6.30;;
8001;SDS011;4046;48.774;8.732;2023-08-20T12:15:21;6.57;;;6.17;;
8001;SDS011;4046;48.774;8.732;2023-08-20T12:20:26;6.50;;;6.10;;
8001;SDS011;4046;48.774;8.732;2023-08-20T12:22:53;6.27;;;5.97;;
8001;SDS011;4046;48.774;8.732;2023-08-20T12:25:18;6.97;;;6.57;;
8001;SDS011;4046;48.774;8.732;2023-08-20T12:27:44;7.37;;;6.87;;
8001;SDS011;4046;48.774;8.732;2023-08-20T12:30:10;6.40;;;6.00;;
8001;SDS011;4046;48.774;8.732;2023-08-20T12:32:36;7.30;;;6.70;;
8001;SDS011;4046;48.774;8.732;2023-08-20T12:35:02;6.60;;;6.20;;
8001;SDS011;4046;48.774;8.732;2023-08-20T12:37:28;7.07;;;6.47;;
8001;SDS011;4046;48.774;8.732;2023-08-20T12:39:53;6.60;;;6.10;;
8001;SDS011;4046;48.774;8.732;2023-08-20T12:42:19;7.33;;;6.93;;
8001;SDS011;4046;48.774;8.732;2023-08-20T12:44:45;6.80;;;6.27;;
8001;SDS011;4046;48.774;8.732;2023-08-20T12:47:10;6.83;;;6.43;;
8001;SDS011;4046;48.774;8.732;2023-08-20T12:49:36;7.20;;;6.80;;
8001;SDS011;4046;48.774;8.732;2023-08-20T12:52:02;7.40;;;6.90;;
8001;SDS011;4046;48.774;8.732;2023-08-20T12:54:28;7.10;;;6.70;;
8001;SDS011;4046;48.774;8.732;2023-08-20T12:56:54;6.60;;;6.20;;
8001;SDS011;4046;48.774;8.732;2023-08-20T12:59:20;6.97;;;6.57;;
8001;SDS011;4046;48.774;8.732;2023-08-20T13:01:45;6.60;;;6.20;;
8001;SDS011;4046;48.774;8.732;2023-08-20T13:04:12;6.10;;;5.80;;
8001;SDS011;4046;48.774;8.732;2023-08-20T13:06:38;6.93;;;6.53;;
8001;SDS011;4046;48.774;8.732;2023-08-20T13:09:04;7.10;;;6.60;;
8001;SDS011;4046;48.774;8.732;2023-08-20T13:11:31;6.90;;;6.50;;
8001;SDS011;4046;48.774;8.732;2023-08-20T13:13:58;6.70;;;6.30;;
8001;SDS011;4046;48.774;8.732;2023-08-20T13:16:24;6.70;;;6.33;;
8001;SDS011;4046;48.774;8.732;2023-08-20T13:18:50;6.97;;;6.47;;
8001;SDS011;4046;48.774;8.732;2023-08-20T13:21:15;6.40;;;6.00;;
8001;SDS011;4046;48.774;8.732;2023-08-20T13:23:41;7.40;;;6.90;;
8001;SDS011;4046;48.774;8.732;2023-08-20T13:26:07;6.83;;;6.43;;
8001;SDS011;4046;48.774;8.732;2023-08-20T13:28:33;7.10;;;6.60;;
8001;SDS011;4046;48.774;8.732;2023-08-20T13:30:59;6.53;;;6.23;;
8001;SDS011;4046;48.774;8.732;2023-08-20T13:33:24;6.97;;;6.53;;
8001;SDS011;4046;48.774;8.732;2023-08-20T13:35:51;7.50;;;7.00;;
8001;SDS011;4046;48.774;8.732;2023-08-20T13:38:17;6.80;;;6.20;;
8001;SDS011;4046;48.774;8.732;2023-08-20T13:40:45;6.70;;;6.30;;
8001;SDS011;4046;48.774;8.732;2023-08-20T13:43:11;7.23;;;6.77;;
8001;SDS011;4046;48.774;8.732;2023-08-20T13:45:36;6.43;;;6.03;;
8001;SDS011;4046;48.774;8.732;2023-08-20T13:48:02;7.30;;;6.90;;
8001;SDS011;4046;48.774;8.732;2023-08-20T13:50:29;7.30;;;6.77;;
8001;SDS011;4046;48.774;8.732;2023-08-20T13:52:55;7.57;;;6.97;;
8001;SDS011;4046;48.774;8.732;2023-08-20T13:55:21;6.70;;;6.30;;
8001;SDS011;4046;48.774;8.732;2023-08-20T13:57:47;6.70;;;6.30;;
8001;SDS011;4046;48.774;8.732;2023-08-20T14:00:12;7.50;;;7.00;;
8001;SDS011;4046;48.774;8.732;2023-08-20T14:02:38;6.60;;;6.20;;
8001;SDS011;4046;48.774;8.732;2023-08-20T14:05:05;7.67;;;7.07;;
8001;SDS011;4046;48.774;8.732;2023-08-20T14:07:31;8.57;;;7.97;;
8001;SDS011;4046;48.774;8.732;2023-08-20T14:09:58;9.60;;;8.70;;
8001;SDS011;4046;48.774;8.732;2023-08-20T14:12:24;9.47;;;8.77;;
8001;SDS011;4046;48.774;8.732;2023-08-20T14:14:50;10.87;;;10.00;;
8001;SDS011;4046;48.774;8.732;2023-08-20T14:17:16;9.63;;;8.90;;
8001;SDS011;4046;48.774;8.732;2023-08-20T14:19:42;9.83;;;9.13;;
8001;SDS011;4046;48.774;8.732;2023-08-20T14:22:08;9.90;;;9.10;;
8001;SDS011;4046;48.774;8.732;2023-08-20T14:24:33;10.50;;;9.50;;
8001;SDS011;4046;48.774;8.732;2023-08-20T14:26:59;9.90;;;9.13;;
8001;SDS011;4046;48.774;8.732;2023-08-20T14:29:25;10.53;;;9.47;;
8001;SDS011;4046;48.774;8.732;2023-08-20T14:31:50;11.53;;;9.20;;
8001;SDS011;4046;48.774;8.732;2023-08-20T14:34:22;9.40;;;8.63;;
8001;SDS011;4046;48.774;8.732;2023-08-20T14:36:51;9.90;;;9.17;;
8001;SDS011;4046;48.774;8.732;2023-08-20T14:39:20;8.93;;;8.30;;
8001;SDS011;4046;48.774;8.732;2023-08-20T14:41:46;9.83;;;8.90;;
8001;SDS011;4046;48.774;8.732;2023-08-20T14:44:12;9.53;;;8.73;;
8001;SDS011;4046;48.774;8.732;2023-08-20T14:46:38;9.30;;;8.50;;
8001;SDS011;4046;48.774;8.732;2023-08-20T14:49:07;9.13;;;8.33;;
8001;SDS011;4046;48.774;8.732;2023-08-20T14:51:33;8.43;;;7.90;;
8001;SDS011;4046;48.774;8.732;2023-08-20T14:54:00;9.53;;;8.87;;
8001;SDS011;4046;48.774;8.732;2023-08-20T14:56:28;10.03;;;9.17;;
8001;SDS011;4046;48.774;8.732;2023-08-20T14:58:57;8.90;;;8.27;;
8001;SDS011;4046;48.774;8.732;2023-08-20T15:01:23;8.80;;;8.20;;
8001;SDS011;4046;48.774;8.732;2023-08-20T15:03:49;8.90;;;8.30;;
8001;SDS011;4046;48.774;8.732;2023-08-20T15:06:15;9.60;;;9.00;;
8001;SDS011;4046;48.774;8.732;2023-08-20T15:08:40;9.60;;;8.90;;
8001;SDS011;4046;48.774;8.732;2023-08-20T15:11:07;9.20;;;8.40;;
8001;SDS011;4046;48.774;8.732;2023-08-20T15:13:33;8.30;;;7.60;;
8001;SDS011;4046;48.774;8.732;2023-08-20T15:15:59;9.70;;;8.83;;
8001;SDS011;4046;48.774;8.732;2023-08-20T15:18:28;8.10;;;7.60;;
8001;SDS011;4046;48.774;8.732;2023-08-20T15:20:57;8.20;;;7.60;;
8001;SDS011;4046;48.774;8.732;2023-08-20T15:23:27;9.50;;;8.50;;
8001;SDS011;4046;48.774;8.732;2023-08-20T15:25:55;8.43;;;7.83;;
8001;SDS011;4046;48.774;8.732;2023-08-20T15:28:21;8.40;;;7.80;;
8001;SDS011;4046;48.774;8.732;2023-08-20T15:30:51;8.63;;;8.03;;